Aérodrome :











RETROUVEZ-NOUS SUR...

 
LOGIN :

S'inscrire | Disclaimer

   EN    FR    IT 

 









Légende :    VFR   VFR Marginal   IFR   IFR Intensif   IFR Très Intensif
Visi : 
Plafond : 
>= 8 km
>= 3000ft
5 à 8 km
1000 à 3000 ft
1500m à 5 km
500 à 1000 ft
800 à 1500m
200 à 500 ft
< 800m
< 200 ft
Symboles :   Orages  Brouillard  Fortes neiges  Fortes précipitations  Vent > 20 kt






- Altitude de l'aérodrome : 2205 ft


KVGT - North Las Vegas

DERNIER METAR :
  • 242153Z 31016G23KT 10SM CLR 32/M08 A2990 RMK AO2 PK WND 32030/2122 SLP119 T03171083

METARs EXPIRÉS :
  • 242053Z 29010G16KT 10SM CLR 30/M09 A2993 RMK AO2 SLP131 T03001089 58022
  • 241953Z 29007KT 240V300 10SM CLR 28/M06 A2995 RMK AO2 SLP140 T02781056

TAF KVGT
Valide du 24 à 18h jusqu'au 25 à 18h UTC


241732Z 2418/2518 06009KT P6SM FEW250
FM242200 35009G16KT P6SM FEW250
FM250300 01007KT P6SM FEW250
FM251600 07010KT P6SM FEW250
FIR KZLA / Amérique du Nord



MET'MAP, la Météo Aéronautique d'un coup d'oeil ! - Copyright ORBIFLY Décembre 2007 - Disclaimer

ORBIFLY MET'MAP TEAM :

Programmation & Développement : Alexandra Zaïnal
Sur une idée originale de : Baudouin d'Aumeries
Assistance à la programmation : Marc-Olivier Méhu
Soutien technique & logistique : Manuel Goepfert

Contact : metmap@orbifly.com




SOURCES & CREDITS :

   NOAA       Earth
Advisory